Ned, Kentucky
Current Conditions -  °F | °C
As of 6:53 AM on Thursday 29 Jan 2015 (Local Time) from KJKL Reporting Station
Clear Clear  
Wind Chill: 31°   Ceiling: Unl
Heat Index: 35°   Visibility: 10mi
Dew Point: 19°   Wind: 5mph
Humidity: 52%   Direction: 210°SSW
Pressure: 30.04"   Gusts: NA
Location:  37.4863°N, 83.3327°W
Report Text: KJKL 291153Z AUTO 21004KT 10SM CLR 02/M07 A3004 RMK AO2 SLP180 T00171072 10017 21006 56021
Loading
Personal Weather Stations






























Interactive Weather Map New forecast layout! Learn more

10-Day Weather Forecast

Advertisements
Track Severe Weather on mobile